sensor_id;sensor_type;location;lat;lon;timestamp;temperature;humidity
17240;DHT22;9943;54.378;18.604;2022-10-18T00:00:42;18.20;99.90
17240;DHT22;9943;54.378;18.604;2022-10-18T00:03:14;18.30;99.90
17240;DHT22;9943;54.378;18.604;2022-10-18T00:05:43;18.30;99.90
17240;DHT22;9943;54.378;18.604;2022-10-18T00:08:14;18.30;99.90
17240;DHT22;9943;54.378;18.604;2022-10-18T00:10:46;18.20;99.90
17240;DHT22;9943;54.378;18.604;2022-10-18T00:13:16;18.30;99.90
17240;DHT22;9943;54.378;18.604;2022-10-18T00:15:49;18.40;99.90
17240;DHT22;9943;54.378;18.604;2022-10-18T00:18:18;18.40;99.90
17240;DHT22;9943;54.378;18.604;2022-10-18T00:20:56;18.40;99.90
17240;DHT22;9943;54.378;18.604;2022-10-18T00:23:25;18.40;99.90
17240;DHT22;9943;54.378;18.604;2022-10-18T00:26:01;18.40;99.90
17240;DHT22;9943;54.378;18.604;2022-10-18T00:28:32;18.40;99.90
17240;DHT22;9943;54.378;18.604;2022-10-18T00:31:09;18.40;99.90
17240;DHT22;9943;54.378;18.604;2022-10-18T00:33:38;18.50;99.90
17240;DHT22;9943;54.378;18.604;2022-10-18T00:36:07;18.30;99.90
17240;DHT22;9943;54.378;18.604;2022-10-18T00:38:35;18.40;99.90
17240;DHT22;9943;54.378;18.604;2022-10-18T00:41:06;18.40;99.90
17240;DHT22;9943;54.378;18.604;2022-10-18T00:43:53;18.40;99.90
17240;DHT22;9943;54.378;18.604;2022-10-18T00:46:26;18.40;99.90
17240;DHT22;9943;54.378;18.604;2022-10-18T00:48:57;18.30;99.90
17240;DHT22;9943;54.378;18.604;2022-10-18T00:51:31;18.30;99.90
17240;DHT22;9943;54.378;18.604;2022-10-18T00:54:00;18.30;99.90
17240;DHT22;9943;54.378;18.604;2022-10-18T00:56:29;18.20;99.90
17240;DHT22;9943;54.378;18.604;2022-10-18T00:59:02;18.20;99.90
17240;DHT22;9943;54.378;18.604;2022-10-18T01:01:37;18.20;99.90
17240;DHT22;9943;54.378;18.604;2022-10-18T01:04:10;18.10;99.90
17240;DHT22;9943;54.378;18.604;2022-10-18T01:06:49;18.00;99.90
17240;DHT22;9943;54.378;18.604;2022-10-18T01:09:24;18.10;99.90
17240;DHT22;9943;54.378;18.604;2022-10-18T01:12:08;18.00;99.90
17240;DHT22;9943;54.378;18.604;2022-10-18T01:14:45;18.10;99.90
17240;DHT22;9943;54.378;18.604;2022-10-18T01:17:20;18.00;99.90
17240;DHT22;9943;54.378;18.604;2022-10-18T01:20:16;17.90;99.90
17240;DHT22;9943;54.378;18.604;2022-10-18T01:22:49;17.90;99.90
17240;DHT22;9943;54.378;18.604;2022-10-18T01:25:35;17.90;99.90
17240;DHT22;9943;54.378;18.604;2022-10-18T01:28:16;17.90;99.90
17240;DHT22;9943;54.378;18.604;2022-10-18T01:30:58;17.90;99.90
17240;DHT22;9943;54.378;18.604;2022-10-18T01:33:33;17.80;99.90
17240;DHT22;9943;54.378;18.604;2022-10-18T01:36:08;17.80;99.90
17240;DHT22;9943;54.378;18.604;2022-10-18T01:38:43;17.80;99.90
17240;DHT22;9943;54.378;18.604;2022-10-18T01:41:18;17.80;99.90
17240;DHT22;9943;54.378;18.604;2022-10-18T01:43:53;17.80;99.90
17240;DHT22;9943;54.378;18.604;2022-10-18T01:46:27;17.70;99.90
17240;DHT22;9943;54.378;18.604;2022-10-18T01:49:00;17.70;99.90
17240;DHT22;9943;54.378;18.604;2022-10-18T01:51:31;17.70;99.90
17240;DHT22;9943;54.378;18.604;2022-10-18T01:54:00;17.70;99.90
17240;DHT22;9943;54.378;18.604;2022-10-18T01:56:45;17.50;99.90
17240;DHT22;9943;54.378;18.604;2022-10-18T01:59:38;17.50;99.90
17240;DHT22;9943;54.378;18.604;2022-10-18T02:02:30;17.40;99.90
17240;DHT22;9943;54.378;18.604;2022-10-18T02:05:05;17.50;99.90
17240;DHT22;9943;54.378;18.604;2022-10-18T02:07:40;17.30;99.90
17240;DHT22;9943;54.378;18.604;2022-10-18T02:10:16;17.30;99.90
17240;DHT22;9943;54.378;18.604;2022-10-18T02:12:47;17.30;99.90
17240;DHT22;9943;54.378;18.604;2022-10-18T02:15:31;17.20;99.90
17240;DHT22;9943;54.378;18.604;2022-10-18T02:18:05;17.10;99.90
17240;DHT22;9943;54.378;18.604;2022-10-18T02:20:35;17.10;99.90
17240;DHT22;9943;54.378;18.604;2022-10-18T02:23:07;17.10;99.90
17240;DHT22;9943;54.378;18.604;2022-10-18T02:25:36;17.10;99.90
17240;DHT22;9943;54.378;18.604;2022-10-18T02:28:05;17.00;99.90
17240;DHT22;9943;54.378;18.604;2022-10-18T02:30:37;17.00;99.90
17240;DHT22;9943;54.378;18.604;2022-10-18T02:33:13;17.10;99.90
17240;DHT22;9943;54.378;18.604;2022-10-18T02:35:45;17.00;99.90
17240;DHT22;9943;54.378;18.604;2022-10-18T02:38:16;17.00;99.90
17240;DHT22;9943;54.378;18.604;2022-10-18T02:40:46;17.00;99.90
17240;DHT22;9943;54.378;18.604;2022-10-18T02:43:14;16.90;99.90
17240;DHT22;9943;54.378;18.604;2022-10-18T02:45:43;16.90;99.90
17240;DHT22;9943;54.378;18.604;2022-10-18T02:48:13;17.00;99.90
17240;DHT22;9943;54.378;18.604;2022-10-18T02:50:41;16.90;99.90
17240;DHT22;9943;54.378;18.604;2022-10-18T02:53:10;17.00;99.90
17240;DHT22;9943;54.378;18.604;2022-10-18T02:55:38;16.90;99.90
17240;DHT22;9943;54.378;18.604;2022-10-18T02:58:09;16.90;99.90
17240;DHT22;9943;54.378;18.604;2022-10-18T03:00:37;16.90;99.90
17240;DHT22;9943;54.378;18.604;2022-10-18T03:03:06;16.80;99.90
17240;DHT22;9943;54.378;18.604;2022-10-18T03:05:38;16.80;99.90
17240;DHT22;9943;54.378;18.604;2022-10-18T03:08:06;16.80;99.90
17240;DHT22;9943;54.378;18.604;2022-10-18T03:10:35;16.80;99.90
17240;DHT22;9943;54.378;18.604;2022-10-18T03:13:05;16.70;99.90
17240;DHT22;9943;54.378;18.604;2022-10-18T03:15:34;16.70;99.90
17240;DHT22;9943;54.378;18.604;2022-10-18T03:18:03;16.70;99.90
17240;DHT22;9943;54.378;18.604;2022-10-18T03:20:32;16.70;99.90
17240;DHT22;9943;54.378;18.604;2022-10-18T03:23:02;16.70;99.90
17240;DHT22;9943;54.378;18.604;2022-10-18T03:25:32;16.70;99.90
17240;DHT22;9943;54.378;18.604;2022-10-18T03:28:01;16.50;99.90
17240;DHT22;9943;54.378;18.604;2022-10-18T03:30:31;16.60;99.90
17240;DHT22;9943;54.378;18.604;2022-10-18T03:33:00;16.70;99.90
17240;DHT22;9943;54.378;18.604;2022-10-18T03:35:29;16.60;99.90
17240;DHT22;9943;54.378;18.604;2022-10-18T03:37:57;16.40;99.90
17240;DHT22;9943;54.378;18.604;2022-10-18T03:40:27;16.50;99.90
17240;DHT22;9943;54.378;18.604;2022-10-18T03:42:55;16.50;99.90
17240;DHT22;9943;54.378;18.604;2022-10-18T03:45:24;16.50;99.90
17240;DHT22;9943;54.378;18.604;2022-10-18T03:47:55;16.40;99.90
17240;DHT22;9943;54.378;18.604;2022-10-18T03:50:25;16.30;99.90
17240;DHT22;9943;54.378;18.604;2022-10-18T03:52:53;16.40;99.90
17240;DHT22;9943;54.378;18.604;2022-10-18T03:55:23;16.40;99.90
17240;DHT22;9943;54.378;18.604;2022-10-18T03:57:56;16.40;99.90
17240;DHT22;9943;54.378;18.604;2022-10-18T04:00:25;16.30;99.90
17240;DHT22;9943;54.378;18.604;2022-10-18T04:02:53;16.30;99.90
17240;DHT22;9943;54.378;18.604;2022-10-18T04:05:23;16.20;99.90
17240;DHT22;9943;54.378;18.604;2022-10-18T04:07:54;16.30;99.90
17240;DHT22;9943;54.378;18.604;2022-10-18T04:10:23;16.30;99.90
17240;DHT22;9943;54.378;18.604;2022-10-18T04:12:52;16.20;99.90
17240;DHT22;9943;54.378;18.604;2022-10-18T04:15:21;16.30;99.90
17240;DHT22;9943;54.378;18.604;2022-10-18T04:17:50;16.30;99.90
17240;DHT22;9943;54.378;18.604;2022-10-18T04:20:18;16.30;99.90
17240;DHT22;9943;54.378;18.604;2022-10-18T04:22:49;16.20;99.90
17240;DHT22;9943;54.378;18.604;2022-10-18T04:25:20;16.40;99.90
17240;DHT22;9943;54.378;18.604;2022-10-18T04:27:50;16.20;99.90
17240;DHT22;9943;54.378;18.604;2022-10-18T04:30:23;16.20;99.90
17240;DHT22;9943;54.378;18.604;2022-10-18T04:32:51;16.20;99.90
17240;DHT22;9943;54.378;18.604;2022-10-18T04:35:19;16.00;99.90
17240;DHT22;9943;54.378;18.604;2022-10-18T04:37:50;16.10;99.90
17240;DHT22;9943;54.378;18.604;2022-10-18T04:40:18;16.20;99.90
17240;DHT22;9943;54.378;18.604;2022-10-18T04:42:46;16.00;99.90
17240;DHT22;9943;54.378;18.604;2022-10-18T04:45:17;16.00;99.90
17240;DHT22;9943;54.378;18.604;2022-10-18T04:47:48;16.00;99.90
17240;DHT22;9943;54.378;18.604;2022-10-18T04:50:17;16.00;99.90
17240;DHT22;9943;54.378;18.604;2022-10-18T04:52:47;16.10;99.90
17240;DHT22;9943;54.378;18.604;2022-10-18T04:55:16;15.90;99.90
17240;DHT22;9943;54.378;18.604;2022-10-18T04:57:45;16.00;99.90
17240;DHT22;9943;54.378;18.604;2022-10-18T05:00:14;15.90;99.90
17240;DHT22;9943;54.378;18.604;2022-10-18T05:02:42;16.00;99.90
17240;DHT22;9943;54.378;18.604;2022-10-18T05:05:12;16.10;99.90
17240;DHT22;9943;54.378;18.604;2022-10-18T05:07:40;16.00;99.90
17240;DHT22;9943;54.378;18.604;2022-10-18T05:10:09;16.00;99.90
17240;DHT22;9943;54.378;18.604;2022-10-18T05:12:37;16.00;99.90
17240;DHT22;9943;54.378;18.604;2022-10-18T05:15:09;16.00;99.90
17240;DHT22;9943;54.378;18.604;2022-10-18T05:17:38;16.00;99.90
17240;DHT22;9943;54.378;18.604;2022-10-18T05:20:07;15.90;99.90
17240;DHT22;9943;54.378;18.604;2022-10-18T05:22:38;15.90;99.90
17240;DHT22;9943;54.378;18.604;2022-10-18T05:25:10;16.00;99.90
17240;DHT22;9943;54.378;18.604;2022-10-18T05:27:41;16.10;99.90
17240;DHT22;9943;54.378;18.604;2022-10-18T05:30:09;16.00;99.90
17240;DHT22;9943;54.378;18.604;2022-10-18T05:32:38;15.90;99.90
17240;DHT22;9943;54.378;18.604;2022-10-18T05:35:07;16.00;99.90
17240;DHT22;9943;54.378;18.604;2022-10-18T05:37:46;15.80;99.90
17240;DHT22;9943;54.378;18.604;2022-10-18T05:40:14;16.00;99.90
17240;DHT22;9943;54.378;18.604;2022-10-18T05:42:43;15.80;99.90
17240;DHT22;9943;54.378;18.604;2022-10-18T05:45:14;15.80;99.90
17240;DHT22;9943;54.378;18.604;2022-10-18T05:47:43;15.90;99.90
17240;DHT22;9943;54.378;18.604;2022-10-18T05:50:12;15.80;99.90
17240;DHT22;9943;54.378;18.604;2022-10-18T05:52:44;15.80;99.90
17240;DHT22;9943;54.378;18.604;2022-10-18T05:55:13;15.80;99.90
17240;DHT22;9943;54.378;18.604;2022-10-18T05:57:42;15.80;99.90
17240;DHT22;9943;54.378;18.604;2022-10-18T06:00:12;15.90;99.90
17240;DHT22;9943;54.378;18.604;2022-10-18T06:02:41;16.00;99.90
17240;DHT22;9943;54.378;18.604;2022-10-18T06:05:11;16.00;99.90
17240;DHT22;9943;54.378;18.604;2022-10-18T06:07:41;16.10;99.90
17240;DHT22;9943;54.378;18.604;2022-10-18T06:10:11;16.10;99.90
17240;DHT22;9943;54.378;18.604;2022-10-18T06:12:41;16.00;99.90
17240;DHT22;9943;54.378;18.604;2022-10-18T06:15:11;16.10;99.90
17240;DHT22;9943;54.378;18.604;2022-10-18T06:17:44;16.00;99.90
17240;DHT22;9943;54.378;18.604;2022-10-18T06:20:13;16.20;99.90
17240;DHT22;9943;54.378;18.604;2022-10-18T06:22:47;16.00;99.90
17240;DHT22;9943;54.378;18.604;2022-10-18T06:25:16;16.00;99.90
17240;DHT22;9943;54.378;18.604;2022-10-18T06:27:45;16.10;99.90
17240;DHT22;9943;54.378;18.604;2022-10-18T06:30:14;16.10;99.90
17240;DHT22;9943;54.378;18.604;2022-10-18T06:32:44;16.20;99.90
17240;DHT22;9943;54.378;18.604;2022-10-18T06:35:13;16.10;99.90
17240;DHT22;9943;54.378;18.604;2022-10-18T06:37:44;16.10;99.90
17240;DHT22;9943;54.378;18.604;2022-10-18T06:40:13;16.30;99.90
17240;DHT22;9943;54.378;18.604;2022-10-18T06:42:44;16.30;99.90
17240;DHT22;9943;54.378;18.604;2022-10-18T06:45:16;16.30;99.90
17240;DHT22;9943;54.378;18.604;2022-10-18T06:47:47;16.30;99.90
17240;DHT22;9943;54.378;18.604;2022-10-18T06:50:19;16.30;99.90
17240;DHT22;9943;54.378;18.604;2022-10-18T06:52:48;16.20;99.90
17240;DHT22;9943;54.378;18.604;2022-10-18T06:55:19;16.30;99.90
17240;DHT22;9943;54.378;18.604;2022-10-18T06:57:50;16.20;99.90
17240;DHT22;9943;54.378;18.604;2022-10-18T07:00:20;16.20;99.90
17240;DHT22;9943;54.378;18.604;2022-10-18T07:02:49;16.20;99.90
17240;DHT22;9943;54.378;18.604;2022-10-18T07:05:17;16.20;99.90
17240;DHT22;9943;54.378;18.604;2022-10-18T07:07:48;16.40;99.90
17240;DHT22;9943;54.378;18.604;2022-10-18T07:10:19;16.40;99.90
17240;DHT22;9943;54.378;18.604;2022-10-18T07:12:47;16.30;99.90
17240;DHT22;9943;54.378;18.604;2022-10-18T07:15:17;16.30;99.90
17240;DHT22;9943;54.378;18.604;2022-10-18T07:17:48;16.40;99.90
17240;DHT22;9943;54.378;18.604;2022-10-18T07:20:19;16.50;99.90
17240;DHT22;9943;54.378;18.604;2022-10-18T07:22:48;16.50;99.90
17240;DHT22;9943;54.378;18.604;2022-10-18T07:25:18;16.50;99.90
17240;DHT22;9943;54.378;18.604;2022-10-18T07:27:52;16.50;99.90
17240;DHT22;9943;54.378;18.604;2022-10-18T07:30:24;16.60;99.90
17240;DHT22;9943;54.378;18.604;2022-10-18T07:32:55;16.60;99.90
17240;DHT22;9943;54.378;18.604;2022-10-18T07:35:24;16.70;99.90
17240;DHT22;9943;54.378;18.604;2022-10-18T07:37:52;16.80;99.90
17240;DHT22;9943;54.378;18.604;2022-10-18T07:40:23;17.20;99.90
17240;DHT22;9943;54.378;18.604;2022-10-18T07:42:53;16.90;99.90
17240;DHT22;9943;54.378;18.604;2022-10-18T07:45:22;16.80;99.90
17240;DHT22;9943;54.378;18.604;2022-10-18T07:47:55;16.90;99.90
17240;DHT22;9943;54.378;18.604;2022-10-18T07:50:25;16.80;99.90
17240;DHT22;9943;54.378;18.604;2022-10-18T07:52:53;16.90;99.90
17240;DHT22;9943;54.378;18.604;2022-10-18T07:55:27;16.90;99.90
17240;DHT22;9943;54.378;18.604;2022-10-18T07:57:59;16.90;99.90
17240;DHT22;9943;54.378;18.604;2022-10-18T08:00:28;16.80;99.90
17240;DHT22;9943;54.378;18.604;2022-10-18T08:03:00;16.80;99.90
17240;DHT22;9943;54.378;18.604;2022-10-18T08:05:29;16.80;99.90
17240;DHT22;9943;54.378;18.604;2022-10-18T08:08:01;16.80;99.90
17240;DHT22;9943;54.378;18.604;2022-10-18T08:10:30;16.70;99.90
17240;DHT22;9943;54.378;18.604;2022-10-18T08:13:04;16.60;99.90
17240;DHT22;9943;54.378;18.604;2022-10-18T08:15:32;16.70;99.90
17240;DHT22;9943;54.378;18.604;2022-10-18T08:18:09;16.60;99.90
17240;DHT22;9943;54.378;18.604;2022-10-18T08:20:42;16.50;99.90
17240;DHT22;9943;54.378;18.604;2022-10-18T08:23:12;16.50;99.90
17240;DHT22;9943;54.378;18.604;2022-10-18T08:25:45;16.50;99.90
17240;DHT22;9943;54.378;18.604;2022-10-18T08:28:18;16.40;99.90
17240;DHT22;9943;54.378;18.604;2022-10-18T08:30:48;16.50;99.90
17240;DHT22;9943;54.378;18.604;2022-10-18T08:33:21;16.50;99.90
17240;DHT22;9943;54.378;18.604;2022-10-18T08:35:58;16.60;99.90
17240;DHT22;9943;54.378;18.604;2022-10-18T08:38:29;16.70;99.90
17240;DHT22;9943;54.378;18.604;2022-10-18T08:41:14;16.80;99.90
17240;DHT22;9943;54.378;18.604;2022-10-18T08:43:49;16.90;99.90
17240;DHT22;9943;54.378;18.604;2022-10-18T08:46:20;17.10;99.90
17240;DHT22;9943;54.378;18.604;2022-10-18T08:48:54;17.00;99.90
17240;DHT22;9943;54.378;18.604;2022-10-18T08:51:28;17.30;99.90
17240;DHT22;9943;54.378;18.604;2022-10-18T08:54:06;17.60;99.90
17240;DHT22;9943;54.378;18.604;2022-10-18T08:56:42;17.70;99.90
17240;DHT22;9943;54.378;18.604;2022-10-18T08:59:13;18.40;99.90
17240;DHT22;9943;54.378;18.604;2022-10-18T09:01:47;18.70;99.90
17240;DHT22;9943;54.378;18.604;2022-10-18T09:04:35;18.80;99.90
17240;DHT22;9943;54.378;18.604;2022-10-18T09:10:08;18.80;99.90
17240;DHT22;9943;54.378;18.604;2022-10-18T09:13:00;18.60;99.90
17240;DHT22;9943;54.378;18.604;2022-10-18T09:15:42;19.20;99.90
17240;DHT22;9943;54.378;18.604;2022-10-18T09:18:32;19.30;99.90
17240;DHT22;9943;54.378;18.604;2022-10-18T09:21:14;19.10;99.90
17240;DHT22;9943;54.378;18.604;2022-10-18T09:23:46;19.20;99.90
17240;DHT22;9943;54.378;18.604;2022-10-18T09:26:18;19.20;99.90
17240;DHT22;9943;54.378;18.604;2022-10-18T09:29:01;19.00;99.90
17240;DHT22;9943;54.378;18.604;2022-10-18T09:31:42;19.10;99.90
17240;DHT22;9943;54.378;18.604;2022-10-18T09:34:24;18.40;99.90
17240;DHT22;9943;54.378;18.604;2022-10-18T09:36:59;20.30;99.90
17240;DHT22;9943;54.378;18.604;2022-10-18T09:39:32;21.10;99.90
17240;DHT22;9943;54.378;18.604;2022-10-18T09:42:04;22.30;99.90
17240;DHT22;9943;54.378;18.604;2022-10-18T09:44:47;22.00;99.90
17240;DHT22;9943;54.378;18.604;2022-10-18T09:47:25;21.90;99.90
17240;DHT22;9943;54.378;18.604;2022-10-18T09:50:15;21.60;99.90
17240;DHT22;9943;54.378;18.604;2022-10-18T09:52:49;21.50;99.90
17240;DHT22;9943;54.378;18.604;2022-10-18T09:55:25;21.10;99.90
17240;DHT22;9943;54.378;18.604;2022-10-18T09:58:04;21.40;99.90
17240;DHT22;9943;54.378;18.604;2022-10-18T10:00:40;22.60;99.90
17240;DHT22;9943;54.378;18.604;2022-10-18T10:03:11;23.90;99.90
17240;DHT22;9943;54.378;18.604;2022-10-18T10:05:41;24.50;99.90
17240;DHT22;9943;54.378;18.604;2022-10-18T10:08:16;23.80;99.90
17240;DHT22;9943;54.378;18.604;2022-10-18T10:10:46;24.70;99.90
17240;DHT22;9943;54.378;18.604;2022-10-18T10:13:23;24.60;99.90
17240;DHT22;9943;54.378;18.604;2022-10-18T10:15:56;24.50;99.90
17240;DHT22;9943;54.378;18.604;2022-10-18T10:18:29;22.00;99.90
17240;DHT22;9943;54.378;18.604;2022-10-18T10:21:04;22.70;99.90
17240;DHT22;9943;54.378;18.604;2022-10-18T10:23:43;22.00;99.90
17240;DHT22;9943;54.378;18.604;2022-10-18T10:26:21;21.70;99.90
17240;DHT22;9943;54.378;18.604;2022-10-18T10:31:26;21.30;99.90
17240;DHT22;9943;54.378;18.604;2022-10-18T10:34:01;20.20;99.90
17240;DHT22;9943;54.378;18.604;2022-10-18T10:36:32;19.90;99.90
17240;DHT22;9943;54.378;18.604;2022-10-18T10:39:10;19.50;99.90
17240;DHT22;9943;54.378;18.604;2022-10-18T10:41:41;19.30;99.90
17240;DHT22;9943;54.378;18.604;2022-10-18T10:44:15;19.30;99.90
17240;DHT22;9943;54.378;18.604;2022-10-18T10:46:47;19.50;99.90
17240;DHT22;9943;54.378;18.604;2022-10-18T10:49:46;19.50;99.90
17240;DHT22;9943;54.378;18.604;2022-10-18T10:52:17;19.60;99.90
17240;DHT22;9943;54.378;18.604;2022-10-18T10:54:47;19.30;99.90
17240;DHT22;9943;54.378;18.604;2022-10-18T10:57:21;19.40;99.90
17240;DHT22;9943;54.378;18.604;2022-10-18T10:59:52;19.30;99.90
17240;DHT22;9943;54.378;18.604;2022-10-18T11:02:25;19.10;99.90
17240;DHT22;9943;54.378;18.604;2022-10-18T11:05:18;18.80;99.90
17240;DHT22;9943;54.378;18.604;2022-10-18T11:07:54;18.70;99.90
17240;DHT22;9943;54.378;18.604;2022-10-18T11:10:29;18.70;99.90
17240;DHT22;9943;54.378;18.604;2022-10-18T11:13:04;18.70;99.90
17240;DHT22;9943;54.378;18.604;2022-10-18T11:15:44;18.50;99.90
17240;DHT22;9943;54.378;18.604;2022-10-18T11:18:23;18.60;99.90
17240;DHT22;9943;54.378;18.604;2022-10-18T11:20:59;18.50;99.90
17240;DHT22;9943;54.378;18.604;2022-10-18T11:23:38;18.30;99.90
17240;DHT22;9943;54.378;18.604;2022-10-18T11:26:25;18.30;99.90
17240;DHT22;9943;54.378;18.604;2022-10-18T11:29:24;18.30;99.90
17240;DHT22;9943;54.378;18.604;2022-10-18T11:32:03;18.40;99.90
17240;DHT22;9943;54.378;18.604;2022-10-18T11:34:44;18.20;99.90
17240;DHT22;9943;54.378;18.604;2022-10-18T11:37:39;18.20;99.90
17240;DHT22;9943;54.378;18.604;2022-10-18T11:40:29;18.30;99.90
17240;DHT22;9943;54.378;18.604;2022-10-18T11:47:11;18.20;99.90
17240;DHT22;9943;54.378;18.604;2022-10-18T11:49:56;17.90;99.90
17240;DHT22;9943;54.378;18.604;2022-10-18T11:52:40;17.70;99.90
17240;DHT22;9943;54.378;18.604;2022-10-18T11:55:25;17.80;99.90
17240;DHT22;9943;54.378;18.604;2022-10-18T11:58:03;17.70;99.90
17240;DHT22;9943;54.378;18.604;2022-10-18T12:00:49;17.70;99.90
17240;DHT22;9943;54.378;18.604;2022-10-18T12:03:49;17.70;99.90
17240;DHT22;9943;54.378;18.604;2022-10-18T12:06:22;17.60;99.90
17240;DHT22;9943;54.378;18.604;2022-10-18T12:09:00;17.70;99.90
17240;DHT22;9943;54.378;18.604;2022-10-18T12:11:36;17.60;99.90
17240;DHT22;9943;54.378;18.604;2022-10-18T12:14:20;17.50;99.90
17240;DHT22;9943;54.378;18.604;2022-10-18T12:16:56;17.50;99.90
17240;DHT22;9943;54.378;18.604;2022-10-18T12:19:32;17.50;99.90
17240;DHT22;9943;54.378;18.604;2022-10-18T12:22:10;16.30;99.90
17240;DHT22;9943;54.378;18.604;2022-10-18T12:24:42;17.20;99.90
17240;DHT22;9943;54.378;18.604;2022-10-18T12:27:13;17.30;99.90
17240;DHT22;9943;54.378;18.604;2022-10-18T12:30:05;17.10;99.90
17240;DHT22;9943;54.378;18.604;2022-10-18T12:32:39;17.20;99.90
17240;DHT22;9943;54.378;18.604;2022-10-18T12:35:17;17.00;99.90
17240;DHT22;9943;54.378;18.604;2022-10-18T12:37:59;16.90;99.90
17240;DHT22;9943;54.378;18.604;2022-10-18T12:40:47;16.80;99.90
17240;DHT22;9943;54.378;18.604;2022-10-18T12:43:23;16.90;99.90
17240;DHT22;9943;54.378;18.604;2022-10-18T12:45:58;16.90;99.90
17240;DHT22;9943;54.378;18.604;2022-10-18T12:48:30;16.70;99.90
17240;DHT22;9943;54.378;18.604;2022-10-18T12:51:11;16.70;99.90
17240;DHT22;9943;54.378;18.604;2022-10-18T12:53:44;16.70;99.90
17240;DHT22;9943;54.378;18.604;2022-10-18T12:56:39;16.60;99.90
17240;DHT22;9943;54.378;18.604;2022-10-18T13:02:31;16.50;99.90
17240;DHT22;9943;54.378;18.604;2022-10-18T13:08:07;16.40;99.90
17240;DHT22;9943;54.378;18.604;2022-10-18T13:11:25;16.40;99.90
17240;DHT22;9943;54.378;18.604;2022-10-18T13:14:21;16.60;99.90
17240;DHT22;9943;54.378;18.604;2022-10-18T13:17:05;16.30;99.90
17240;DHT22;9943;54.378;18.604;2022-10-18T13:19:49;16.20;99.90
17240;DHT22;9943;54.378;18.604;2022-10-18T13:22:36;16.20;99.90
17240;DHT22;9943;54.378;18.604;2022-10-18T13:25:20;16.30;99.90
17240;DHT22;9943;54.378;18.604;2022-10-18T13:27:58;16.30;99.90
17240;DHT22;9943;54.378;18.604;2022-10-18T13:30:48;16.20;99.90
17240;DHT22;9943;54.378;18.604;2022-10-18T13:33:30;16.30;99.90
17240;DHT22;9943;54.378;18.604;2022-10-18T13:36:05;16.30;99.90
17240;DHT22;9943;54.378;18.604;2022-10-18T13:38:41;16.20;99.90
17240;DHT22;9943;54.378;18.604;2022-10-18T13:41:28;15.90;99.90
17240;DHT22;9943;54.378;18.604;2022-10-18T13:44:22;16.20;99.90
17240;DHT22;9943;54.378;18.604;2022-10-18T13:47:34;16.20;99.90
17240;DHT22;9943;54.378;18.604;2022-10-18T13:50:29;16.10;99.90
17240;DHT22;9943;54.378;18.604;2022-10-18T13:53:34;16.20;99.90
17240;DHT22;9943;54.378;18.604;2022-10-18T13:59:41;15.90;99.90
17240;DHT22;9943;54.378;18.604;2022-10-18T14:02:38;15.80;99.90
17240;DHT22;9943;54.378;18.604;2022-10-18T14:05:18;15.80;99.90
17240;DHT22;9943;54.378;18.604;2022-10-18T14:07:50;15.80;99.90
17240;DHT22;9943;54.378;18.604;2022-10-18T14:10:32;15.90;99.90
17240;DHT22;9943;54.378;18.604;2022-10-18T14:13:06;15.90;99.90
17240;DHT22;9943;54.378;18.604;2022-10-18T14:16:26;15.80;99.90
17240;DHT22;9943;54.378;18.604;2022-10-18T14:19:07;15.60;99.90
17240;DHT22;9943;54.378;18.604;2022-10-18T14:21:48;15.60;99.90
17240;DHT22;9943;54.378;18.604;2022-10-18T14:24:23;15.60;99.90
17240;DHT22;9943;54.378;18.604;2022-10-18T14:27:12;15.50;99.90
17240;DHT22;9943;54.378;18.604;2022-10-18T14:29:47;14.60;99.90
17240;DHT22;9943;54.378;18.604;2022-10-18T14:32:25;15.50;99.90
17240;DHT22;9943;54.378;18.604;2022-10-18T14:34:57;15.40;99.90
17240;DHT22;9943;54.378;18.604;2022-10-18T14:37:30;15.40;99.90
17240;DHT22;9943;54.378;18.604;2022-10-18T14:40:00;15.40;99.90
17240;DHT22;9943;54.378;18.604;2022-10-18T14:42:31;15.20;99.90
17240;DHT22;9943;54.378;18.604;2022-10-18T14:45:16;15.30;99.90
17240;DHT22;9943;54.378;18.604;2022-10-18T14:47:49;15.20;99.90
17240;DHT22;9943;54.378;18.604;2022-10-18T14:50:27;15.10;99.90
17240;DHT22;9943;54.378;18.604;2022-10-18T14:53:10;15.20;99.90
17240;DHT22;9943;54.378;18.604;2022-10-18T14:55:50;16.30;99.90
17240;DHT22;9943;54.378;18.604;2022-10-18T14:58:22;15.00;99.90
17240;DHT22;9943;54.378;18.604;2022-10-18T15:00:53;15.00;99.90
17240;DHT22;9943;54.378;18.604;2022-10-18T15:03:24;15.00;99.90
17240;DHT22;9943;54.378;18.604;2022-10-18T15:06:03;14.90;99.90
17240;DHT22;9943;54.378;18.604;2022-10-18T15:08:38;14.90;99.90
17240;DHT22;9943;54.378;18.604;2022-10-18T15:11:09;14.90;99.90
17240;DHT22;9943;54.378;18.604;2022-10-18T15:13:43;14.80;99.90
17240;DHT22;9943;54.378;18.604;2022-10-18T15:16:17;14.80;99.90
17240;DHT22;9943;54.378;18.604;2022-10-18T15:19:05;14.70;99.90
17240;DHT22;9943;54.378;18.604;2022-10-18T15:21:52;14.70;99.90
17240;DHT22;9943;54.378;18.604;2022-10-18T15:24:29;14.60;99.90
17240;DHT22;9943;54.378;18.604;2022-10-18T15:27:18;14.50;99.90
17240;DHT22;9943;54.378;18.604;2022-10-18T15:29:49;14.50;99.90
17240;DHT22;9943;54.378;18.604;2022-10-18T15:32:23;14.50;99.90
17240;DHT22;9943;54.378;18.604;2022-10-18T15:35:06;14.30;99.90
17240;DHT22;9943;54.378;18.604;2022-10-18T15:37:39;14.40;99.90
17240;DHT22;9943;54.378;18.604;2022-10-18T15:43:35;14.30;99.90
17240;DHT22;9943;54.378;18.604;2022-10-18T15:46:29;14.20;99.90
17240;DHT22;9943;54.378;18.604;2022-10-18T15:52:37;14.10;99.90
17240;DHT22;9943;54.378;18.604;2022-10-18T15:58:18;14.00;99.90
17240;DHT22;9943;54.378;18.604;2022-10-18T16:00:49;14.00;99.90
17240;DHT22;9943;54.378;18.604;2022-10-18T16:03:21;14.00;99.90
17240;DHT22;9943;54.378;18.604;2022-10-18T16:05:55;14.00;99.90
17240;DHT22;9943;54.378;18.604;2022-10-18T16:08:28;13.90;99.90
17240;DHT22;9943;54.378;18.604;2022-10-18T16:11:01;13.80;99.90
17240;DHT22;9943;54.378;18.604;2022-10-18T16:13:32;13.90;99.90
17240;DHT22;9943;54.378;18.604;2022-10-18T16:16:03;13.80;99.90
17240;DHT22;9943;54.378;18.604;2022-10-18T16:18:34;13.70;99.90
17240;DHT22;9943;54.378;18.604;2022-10-18T16:21:15;13.70;99.90
17240;DHT22;9943;54.378;18.604;2022-10-18T16:23:46;13.80;99.90
17240;DHT22;9943;54.378;18.604;2022-10-18T16:26:16;13.70;99.90
17240;DHT22;9943;54.378;18.604;2022-10-18T16:28:47;13.60;99.90
17240;DHT22;9943;54.378;18.604;2022-10-18T16:31:21;13.60;99.90
17240;DHT22;9943;54.378;18.604;2022-10-18T16:34:02;13.60;99.90
17240;DHT22;9943;54.378;18.604;2022-10-18T16:36:34;13.60;99.90
17240;DHT22;9943;54.378;18.604;2022-10-18T16:39:17;13.50;99.90
17240;DHT22;9943;54.378;18.604;2022-10-18T16:41:46;13.60;99.90
17240;DHT22;9943;54.378;18.604;2022-10-18T16:44:17;13.60;99.90
17240;DHT22;9943;54.378;18.604;2022-10-18T16:46:46;13.40;99.90